Time;durP1;ratioP1;P1;durP2;ratioP2;P2;SDS_P1;SDS_P2;PMS_P1;PMS_P2;Temp;Humidity;BMP_temperature;BMP_pressure;BME280_temperature;BME280_humidity;BME280_pressure;Samples;Min_cycle;Max_cycle;Signal;HPM_P1;HPM_P2
2022/12/06 00:01:24;;;;;;;15.80;7.90;;;;;;;;;;5031466;28;20431;-91
2022/12/06 00:03:56;;;;;;;15.03;6.53;;;;;;;;;;5031890;28;20018;-91
2022/12/06 00:06:22;;;;;;;11.32;6.28;;;;;;;;;;5048140;28;20017;-91
2022/12/06 00:08:48;;;;;;;13.77;6.47;;;;;;;;;;5048054;28;20084;-91
2022/12/06 00:11:15;;;;;;;11.33;5.80;;;;;;;;;;5044203;28;20023;-90
2022/12/06 00:13:40;;;;;;;12.90;6.37;;;;;;;;;;5045893;28;20537;-91
2022/12/06 00:16:07;;;;;;;11.10;6.20;;;;;;;;;;5046955;28;20061;-91
2022/12/06 00:18:34;;;;;;;15.13;6.60;;;;;;;;;;5048615;28;20056;-91
2022/12/06 00:21:06;;;;;;;12.30;5.70;;;;;;;;;;5036258;28;20401;-91
2022/12/06 00:23:31;;;;;;;;;;;;;;;;;;5052064;28;20022;-91
2022/12/06 00:25:59;;;;;;;13.98;5.90;;;;;;;;;;5051456;28;19909;-91
2022/12/06 00:28:24;;;;;;;12.23;5.97;;;;;;;;;;5035702;28;20029;-91
2022/12/06 00:30:49;;;;;;;9.90;5.77;;;;;;;;;;5051300;28;20100;-91
2022/12/06 00:33:14;;;;;;;11.03;5.93;;;;;;;;;;5051296;28;20053;-91
2022/12/06 00:35:40;;;;;;;11.07;5.50;;;;;;;;;;5034619;28;20029;-92
2022/12/06 00:38:05;;;;;;;14.17;6.03;;;;;;;;;;5035146;28;20485;-90
2022/12/06 00:40:30;;;;;;;9.90;5.50;;;;;;;;;;5034673;28;20033;-91
2022/12/06 00:42:55;;;;;;;13.27;5.90;;;;;;;;;;5035729;28;20091;-91
2022/12/06 00:45:20;;;;;;;11.77;5.90;;;;;;;;;;5034554;28;20075;-92
2022/12/06 00:47:46;;;;;;;10.40;5.53;;;;;;;;;;5034427;28;20048;-91
2022/12/06 00:50:11;;;;;;;10.80;5.93;;;;;;;;;;5050654;28;20088;-92
2022/12/06 00:52:36;;;;;;;12.97;5.80;;;;;;;;;;5036907;28;20551;-92
2022/12/06 00:55:01;;;;;;;9.43;5.50;;;;;;;;;;5051042;28;20025;-92
2022/12/06 00:57:27;;;;;;;11.80;5.93;;;;;;;;;;5051039;28;20094;-91
2022/12/06 00:59:52;;;;;;;10.17;5.93;;;;;;;;;;5034234;28;20576;-91
2022/12/06 01:02:17;;;;;;;11.67;5.53;;;;;;;;;;5029850;28;20431;-91
2022/12/06 01:04:43;;;;;;;14.17;6.30;;;;;;;;;;5046965;28;20021;-91
2022/12/06 01:07:08;;;;;;;12.60;5.30;;;;;;;;;;5034222;28;20009;-91
2022/12/06 01:09:33;;;;;;;13.23;6.50;;;;;;;;;;5033912;28;20090;-91
2022/12/06 01:11:58;;;;;;;11.57;5.60;;;;;;;;;;5049069;28;20570;-91
2022/12/06 01:14:24;;;;;;;9.73;5.87;;;;;;;;;;5033061;28;20040;-91
2022/12/06 01:16:49;;;;;;;12.57;6.43;;;;;;;;;;5035072;28;20039;-92
2022/12/06 01:19:14;;;;;;;11.30;6.20;;;;;;;;;;5033859;28;20026;-91
2022/12/06 01:21:40;;;;;;;12.57;6.17;;;;;;;;;;5050454;28;20071;-92
2022/12/06 01:24:05;;;;;;;11.63;5.93;;;;;;;;;;5034241;28;20049;-92
2022/12/06 01:26:31;;;;;;;11.80;5.67;;;;;;;;;;5034849;28;20020;-93
2022/12/06 01:28:58;;;;;;;11.03;5.87;;;;;;;;;;5050090;28;20032;-91
2022/12/06 01:31:23;;;;;;;12.77;6.73;;;;;;;;;;5049330;28;20020;-92
2022/12/06 01:33:48;;;;;;;11.80;6.00;;;;;;;;;;5034920;28;20457;-92
2022/12/06 01:36:21;;;;;;;11.17;5.93;;;;;;;;;;5041895;28;20033;-92
2022/12/06 01:38:53;;;;;;;14.40;6.53;;;;;;;;;;5050178;28;20091;-92
2022/12/06 01:41:19;;;;;;;12.07;6.27;;;;;;;;;;5049914;28;20112;-92
2022/12/06 01:43:45;;;;;;;11.57;6.23;;;;;;;;;;5049993;28;20461;-92
2022/12/06 01:46:19;;;;;;;15.90;7.17;;;;;;;;;;5033387;28;20444;-92
2022/12/06 01:48:46;;;;;;;14.20;6.37;;;;;;;;;;5032543;28;20493;-92
2022/12/06 01:51:12;;;;;;;12.17;6.37;;;;;;;;;;5050180;28;20025;-92
2022/12/06 01:53:37;;;;;;;12.40;6.60;;;;;;;;;;5033218;28;20032;-92
2022/12/06 01:56:03;;;;;;;12.73;7.07;;;;;;;;;;5049988;28;20033;-92
2022/12/06 01:58:30;;;;;;;14.23;6.73;;;;;;;;;;5034328;28;20021;-92
2022/12/06 02:00:56;;;;;;;16.77;7.23;;;;;;;;;;5049304;28;20299;-92
2022/12/06 02:03:22;;;;;;;12.70;6.87;;;;;;;;;;5033016;28;20049;-92
2022/12/06 02:05:47;;;;;;;11.30;6.73;;;;;;;;;;5034393;28;20021;-92
2022/12/06 02:08:13;;;;;;;11.60;6.07;;;;;;;;;;5033187;28;20067;-92
2022/12/06 02:10:38;;;;;;;12.43;6.20;;;;;;;;;;5034155;28;20029;-92
2022/12/06 02:13:04;;;;;;;13.37;6.77;;;;;;;;;;5033395;28;20049;-92
2022/12/06 02:15:46;;;;;;;12.80;6.67;;;;;;;;;;5032807;28;20025;-92
2022/12/06 02:18:30;;;;;;;11.82;6.22;;;;;;;;;;5049544;28;20396;-93
2022/12/06 02:21:06;;;;;;;14.30;6.80;;;;;;;;;;5045935;28;20025;-92
2022/12/06 02:23:54;;;;;;;12.30;6.60;;;;;;;;;;5049385;28;20091;-92
2022/12/06 02:26:26;;;;;;;12.40;6.10;;;;;;;;;;5048753;28;20021;-92
2022/12/06 02:29:01;;;;;;;11.77;5.88;;;;;;;;;;5032598;28;20195;-92
2022/12/06 02:31:32;;;;;;;13.43;5.93;;;;;;;;;;5044829;28;20040;-92
2022/12/06 02:33:57;;;;;;;11.73;6.37;;;;;;;;;;5032563;28;20108;-91
2022/12/06 02:36:28;;;;;;;11.53;6.50;;;;;;;;;;5032602;28;20052;-92
2022/12/06 02:38:56;;;;;;;12.27;6.40;;;;;;;;;;5031832;28;20036;-92
2022/12/06 02:41:23;;;;;;;12.13;5.67;;;;;;;;;;5033159;28;20033;-92
2022/12/06 02:43:52;;;;;;;12.10;5.53;;;;;;;;;;5033652;28;20028;-91
2022/12/06 02:46:20;;;;;;;11.13;5.77;;;;;;;;;;5048001;28;20017;-92
2022/12/06 02:48:46;;;;;;;9.87;5.30;;;;;;;;;;5032471;28;20022;-92
2022/12/06 02:51:13;;;;;;;12.50;6.50;;;;;;;;;;5032335;28;20025;-92
2022/12/06 02:53:41;;;;;;;10.77;5.80;;;;;;;;;;5032236;28;20021;-91
2022/12/06 02:56:07;;;;;;;12.40;5.63;;;;;;;;;;5032225;28;20491;-91
2022/12/06 02:58:35;;;;;;;11.30;5.90;;;;;;;;;;5032127;28;20108;-91
2022/12/06 03:01:02;;;;;;;9.90;5.83;;;;;;;;;;5048814;28;20030;-92
2022/12/06 03:03:46;;;;;;;9.40;5.47;;;;;;;;;;5032465;28;20017;-91
2022/12/06 03:06:33;;;;;;;10.20;5.40;;;;;;;;;;5032137;28;20017;-92
2022/12/06 03:09:24;;;;;;;13.47;6.13;;;;;;;;;;5036833;28;20108;-92
2022/12/06 03:12:01;;;;;;;12.67;5.47;;;;;;;;;;5026381;28;20028;-91
2022/12/06 03:14:31;;;;;;;9.33;5.10;;;;;;;;;;5048894;28;20053;-91
2022/12/06 03:17:08;;;;;;;9.67;5.50;;;;;;;;;;5033075;28;20417;-91
2022/12/06 03:19:35;;;;;;;11.07;5.43;;;;;;;;;;5048742;28;20028;-92
2022/12/06 03:22:12;;;;;;;9.67;5.70;;;;;;;;;;5031114;28;20104;-91
2022/12/06 03:24:38;;;;;;;10.50;5.37;;;;;;;;;;5031931;28;20024;-91
2022/12/06 03:27:06;;;;;;;8.20;4.93;;;;;;;;;;5048319;28;20030;-91
2022/12/06 03:29:32;;;;;;;9.90;5.07;;;;;;;;;;5031970;28;20113;-92
2022/12/06 03:32:01;;;;;;;8.57;5.07;;;;;;;;;;5047925;28;20044;-91
2022/12/06 03:34:29;;;;;;;12.60;5.60;;;;;;;;;;5048427;28;20032;-91
2022/12/06 03:36:55;;;;;;;9.13;5.37;;;;;;;;;;5031512;28;20033;-90
2022/12/06 03:39:43;;;;;;;12.37;5.83;;;;;;;;;;5048391;28;20013;-91
2022/12/06 03:42:09;;;;;;;11.47;5.50;;;;;;;;;;5033807;28;20088;-91
2022/12/06 03:44:34;;;;;;;12.37;5.33;;;;;;;;;;5030947;28;20377;-92
2022/12/06 03:47:02;;;;;;;10.40;5.63;;;;;;;;;;5048479;28;20017;-92
2022/12/06 03:49:31;;;;;;;11.83;5.17;;;;;;;;;;5048275;28;20358;-91
2022/12/06 03:51:56;;;;;;;11.60;5.83;;;;;;;;;;5048279;28;20111;-92
2022/12/06 03:54:21;;;;;;;12.10;5.37;;;;;;;;;;5034995;28;20121;-92
2022/12/06 03:56:47;;;;;;;11.20;4.87;;;;;;;;;;5051902;28;20103;-92
2022/12/06 03:59:12;;;;;;;10.07;5.10;;;;;;;;;;5052194;28;20049;-92
2022/12/06 04:01:37;;;;;;;10.63;5.60;;;;;;;;;;5041169;28;20096;-92
2022/12/06 04:04:03;;;;;;;11.63;5.77;;;;;;;;;;5036581;28;20064;-92
2022/12/06 04:06:28;;;;;;;11.00;5.10;;;;;;;;;;5035104;28;20087;-92
2022/12/06 04:09:50;;;;;;;9.33;4.97;;;;;;;;;;5051339;28;20025;-93
2022/12/06 04:11:38;;;;;;;13.23;5.40;;;;;;;;;;5036079;28;20061;-92
2022/12/06 04:14:04;;;;;;;12.43;5.30;;;;;;;;;;5035242;28;20040;-92
2022/12/06 04:19:13;;;;;;;11.83;5.10;;;;;;;;;;5036318;28;20091;-91
2022/12/06 04:24:22;;;;;;;12.83;5.10;;;;;;;;;;5036412;28;20548;-92
2022/12/06 04:26:47;;;;;;;10.00;4.80;;;;;;;;;;5051371;28;20045;-92
2022/12/06 04:40:07;;;;;;;12.23;5.20;;;;;;;;;;5035539;28;20036;-92
2022/12/06 04:45:17;;;;;;;13.07;4.97;;;;;;;;;;5036067;28;20620;-92
2022/12/06 04:47:42;;;;;;;22.40;5.47;;;;;;;;;;5051107;28;20077;-91
2022/12/06 04:50:07;;;;;;;11.83;5.80;;;;;;;;;;5035483;28;20104;-92
2022/12/06 04:52:32;;;;;;;14.73;5.80;;;;;;;;;;5033389;28;20526;-91
2022/12/06 04:54:57;;;;;;;16.13;6.17;;;;;;;;;;5034237;28;20451;-92
2022/12/06 04:57:23;;;;;;;12.80;6.33;;;;;;;;;;5035465;28;20086;-92
2022/12/06 04:59:49;;;;;;;15.03;6.50;;;;;;;;;;5050654;28;20036;-91
2022/12/06 05:02:15;;;;;;;11.93;6.37;;;;;;;;;;5034065;28;20032;-91
2022/12/06 05:04:40;;;;;;;15.10;6.90;;;;;;;;;;5049785;28;20033;-91
2022/12/06 05:07:05;;;;;;;13.57;6.40;;;;;;;;;;5050624;28;20117;-91
2022/12/06 05:09:30;;;;;;;16.07;6.77;;;;;;;;;;5033982;28;20021;-91
2022/12/06 05:11:56;;;;;;;14.20;6.77;;;;;;;;;;5035057;28;20096;-91
2022/12/06 05:14:21;;;;;;;11.77;5.40;;;;;;;;;;5050459;28;20092;-91
2022/12/06 05:16:46;;;;;;;14.87;5.77;;;;;;;;;;5049211;28;20065;-91
2022/12/06 05:19:12;;;;;;;12.33;5.70;;;;;;;;;;5050628;28;20083;-91
2022/12/06 05:21:37;;;;;;;11.03;5.73;;;;;;;;;;5034681;28;20029;-91
2022/12/06 05:24:02;;;;;;;13.80;6.40;;;;;;;;;;5050275;28;20041;-90
2022/12/06 05:26:28;;;;;;;12.77;5.83;;;;;;;;;;5038125;28;20018;-91
2022/12/06 05:28:53;;;;;;;11.63;5.70;;;;;;;;;;5032254;28;20025;-91
2022/12/06 05:31:19;;;;;;;10.70;5.40;;;;;;;;;;5035050;28;20075;-92
2022/12/06 05:33:44;;;;;;;12.03;5.07;;;;;;;;;;5033475;28;20079;-91
2022/12/06 05:36:11;;;;;;;12.83;5.53;;;;;;;;;;5033369;28;20028;-91
2022/12/06 05:38:36;;;;;;;16.70;5.87;;;;;;;;;;5049896;28;20022;-91
2022/12/06 05:41:02;;;;;;;13.10;5.63;;;;;;;;;;5048918;28;20318;-91
2022/12/06 05:43:28;;;;;;;12.43;5.13;;;;;;;;;;5050011;28;20544;-91
2022/12/06 05:45:54;;;;;;;11.50;5.50;;;;;;;;;;5049599;28;20025;-92
2022/12/06 05:48:19;;;;;;;12.07;5.10;;;;;;;;;;5050027;28;20037;-91
2022/12/06 05:50:48;;;;;;;16.07;5.13;;;;;;;;;;5049022;28;20083;-91
2022/12/06 05:53:13;;;;;;;11.17;4.77;;;;;;;;;;5034418;28;20048;-91
2022/12/06 05:55:39;;;;;;;13.53;5.17;;;;;;;;;;5033051;28;20307;-90
2022/12/06 05:58:04;;;;;;;11.83;4.83;;;;;;;;;;5044548;28;20478;-90
2022/12/06 06:00:29;;;;;;;8.87;4.23;;;;;;;;;;5041488;28;20037;-90
2022/12/06 06:02:55;;;;;;;10.30;4.10;;;;;;;;;;5031220;28;20100;-90
2022/12/06 06:05:20;;;;;;;9.93;4.03;;;;;;;;;;5046712;28;20097;-93
2022/12/06 06:07:45;;;;;;;8.43;3.47;;;;;;;;;;5053648;28;20026;-94
2022/12/06 06:10:11;;;;;;;9.23;3.53;;;;;;;;;;5037636;28;20104;-94
2022/12/06 06:12:36;;;;;;;9.57;3.47;;;;;;;;;;5032086;28;20037;-93
2022/12/06 06:15:03;;;;;;;9.67;3.90;;;;;;;;;;5024157;28;20068;-94
2022/12/06 06:17:29;;;;;;;6.80;3.07;;;;;;;;;;5028900;28;20049;-89
2022/12/06 06:19:54;;;;;;;9.87;3.90;;;;;;;;;;5029528;28;20030;-94
2022/12/06 06:22:21;;;;;;;7.57;3.50;;;;;;;;;;5030369;28;20472;-93
2022/12/06 06:24:47;;;;;;;8.63;3.53;;;;;;;;;;5039651;28;20120;-92
2022/12/06 06:27:12;;;;;;;9.17;3.87;;;;;;;;;;5029247;28;20117;-93
2022/12/06 06:29:37;;;;;;;10.50;3.50;;;;;;;;;;5048728;28;20068;-92
2022/12/06 06:32:02;;;;;;;11.77;3.50;;;;;;;;;;5032825;28;20017;-92
2022/12/06 06:34:27;;;;;;;9.17;3.77;;;;;;;;;;5046040;28;20469;-94
2022/12/06 06:36:53;;;;;;;7.57;3.27;;;;;;;;;;5036678;28;20116;-94
2022/12/06 06:39:18;;;;;;;8.13;3.60;;;;;;;;;;5036517;28;20053;-93
2022/12/06 06:41:46;;;;;;;9.10;3.53;;;;;;;;;;5047076;28;20028;-93
2022/12/06 06:44:12;;;;;;;9.63;4.20;;;;;;;;;;5048936;28;20051;-93
2022/12/06 06:46:37;;;;;;;7.63;3.80;;;;;;;;;;5048558;28;20024;-93
2022/12/06 06:49:02;;;;;;;10.20;3.57;;;;;;;;;;5044931;28;20021;-94
2022/12/06 06:51:29;;;;;;;9.00;3.63;;;;;;;;;;5031066;28;20029;-93
2022/12/06 06:53:54;;;;;;;9.33;4.23;;;;;;;;;;5048529;28;20107;-93
2022/12/06 06:56:19;;;;;;;7.97;3.97;;;;;;;;;;5044986;28;20495;-91
2022/12/06 06:58:45;;;;;;;8.97;3.90;;;;;;;;;;5044057;28;20060;-92
2022/12/06 07:01:15;;;;;;;10.80;4.37;;;;;;;;;;5043577;28;20124;-93
2022/12/06 07:03:40;;;;;;;6.37;3.13;;;;;;;;;;5040995;28;20022;-90
2022/12/06 07:06:07;;;;;;;8.20;3.60;;;;;;;;;;5045476;28;20097;-90
2022/12/06 07:08:33;;;;;;;8.50;3.93;;;;;;;;;;5032086;28;20393;-89
2022/12/06 07:10:58;;;;;;;9.43;4.20;;;;;;;;;;5042665;28;20083;-90
2022/12/06 07:13:24;;;;;;;9.87;4.13;;;;;;;;;;5028437;28;20397;-90
2022/12/06 07:15:50;;;;;;;12.00;4.93;;;;;;;;;;5043084;28;20507;-92
2022/12/06 07:18:17;;;;;;;12.67;4.47;;;;;;;;;;5034420;28;20034;-95
2022/12/06 07:20:42;;;;;;;8.83;4.67;;;;;;;;;;5021292;28;20465;-93
2022/12/06 07:23:08;;;;;;;18.70;5.07;;;;;;;;;;5044709;28;20018;-91
2022/12/06 07:25:33;;;;;;;9.87;4.67;;;;;;;;;;5026660;28;20025;-92
2022/12/06 07:27:58;;;;;;;10.40;4.30;;;;;;;;;;5042040;28;20021;-90
2022/12/06 07:30:23;;;;;;;9.60;4.43;;;;;;;;;;5033302;28;20040;-89
2022/12/06 07:32:49;;;;;;;11.53;5.33;;;;;;;;;;5044456;28;20552;-91
2022/12/06 07:35:14;;;;;;;14.40;5.07;;;;;;;;;;5051464;28;20021;-91
2022/12/06 07:37:43;;;;;;;13.77;4.93;;;;;;;;;;5043480;28;20024;-88
2022/12/06 07:40:08;;;;;;;11.43;5.20;;;;;;;;;;5023114;28;20077;-90
2022/12/06 07:45:18;;;;;;;15.43;5.33;;;;;;;;;;5021795;28;20152;-92
2022/12/06 07:47:43;;;;;;;14.33;5.27;;;;;;;;;;5036343;28;20021;-91
2022/12/06 07:50:10;;;;;;;15.00;5.30;;;;;;;;;;5045901;28;20014;-90
2022/12/06 07:52:35;;;;;;;16.20;6.07;;;;;;;;;;5042674;28;20026;-89
2022/12/06 07:55:01;;;;;;;10.77;5.00;;;;;;;;;;5036352;28;20101;-90
2022/12/06 07:57:27;;;;;;;11.77;5.67;;;;;;;;;;5044981;28;20025;-90
2022/12/06 07:59:52;;;;;;;14.57;6.10;;;;;;;;;;5033481;28;20433;-92
2022/12/06 08:02:18;;;;;;;16.00;5.77;;;;;;;;;;5044887;28;20032;-89
2022/12/06 08:04:43;;;;;;;18.47;6.53;;;;;;;;;;5043069;28;20327;-91
2022/12/06 08:07:09;;;;;;;12.10;5.23;;;;;;;;;;5053780;28;20014;-89
2022/12/06 08:09:34;;;;;;;12.57;6.27;;;;;;;;;;5037926;28;20040;-91
2022/12/06 08:11:59;;;;;;;16.17;6.63;;;;;;;;;;5031260;28;20017;-90
2022/12/06 08:14:24;;;;;;;14.77;5.90;;;;;;;;;;5034150;28;20109;-90
2022/12/06 08:16:50;;;;;;;16.57;6.77;;;;;;;;;;5053159;28;20033;-89
2022/12/06 08:19:16;;;;;;;19.20;7.00;;;;;;;;;;5029825;28;20029;-90
2022/12/06 08:21:41;;;;;;;18.53;6.47;;;;;;;;;;5046819;28;20109;-92
2022/12/06 08:24:06;;;;;;;11.53;5.70;;;;;;;;;;5032485;28;20021;-91
2022/12/06 08:26:32;;;;;;;13.50;5.90;;;;;;;;;;5034713;28;20128;-90
2022/12/06 08:28:59;;;;;;;16.47;6.80;;;;;;;;;;5044201;28;20051;-90
2022/12/06 08:31:24;;;;;;;16.87;6.00;;;;;;;;;;5032478;28;20441;-90
2022/12/06 08:33:49;;;;;;;16.07;7.07;;;;;;;;;;5044885;28;20033;-89
2022/12/06 08:36:16;;;;;;;15.70;6.17;;;;;;;;;;5031477;28;20458;-90
2022/12/06 08:38:41;;;;;;;15.97;6.10;;;;;;;;;;5048615;28;20480;-90
2022/12/06 08:43:51;;;;;;;25.13;6.23;;;;;;;;;;5028835;28;20037;-91
2022/12/06 08:46:17;;;;;;;19.23;5.93;;;;;;;;;;5029741;28;20425;-88
2022/12/06 08:48:42;;;;;;;15.20;5.10;;;;;;;;;;5048321;28;20025;-89
2022/12/06 08:51:07;;;;;;;15.43;5.37;;;;;;;;;;5045199;28;20091;-91
2022/12/06 08:53:32;;;;;;;16.57;5.60;;;;;;;;;;5042924;28;20037;-90
2022/12/06 08:55:57;;;;;;;12.93;5.37;;;;;;;;;;5034679;28;20021;-90
2022/12/06 08:58:23;;;;;;;11.37;4.50;;;;;;;;;;5033924;28;20468;-90
2022/12/06 09:00:48;;;;;;;14.10;5.13;;;;;;;;;;5037197;28;20022;-91
2022/12/06 09:03:13;;;;;;;11.90;5.33;;;;;;;;;;5032408;28;20081;-90
2022/12/06 09:05:38;;;;;;;12.90;5.50;;;;;;;;;;5049914;28;20394;-92
2022/12/06 09:08:03;;;;;;;10.63;4.57;;;;;;;;;;5024231;28;20028;-88
2022/12/06 09:10:29;;;;;;;12.03;5.03;;;;;;;;;;5049106;28;20120;-87
2022/12/06 09:12:54;;;;;;;46.43;17.03;;;;;;;;;;5035156;28;20052;-88
2022/12/06 09:15:19;;;;;;;21.07;8.90;;;;;;;;;;5046589;28;20021;-88
2022/12/06 09:17:44;;;;;;;17.70;7.60;;;;;;;;;;5036020;28;20461;-89
2022/12/06 09:20:16;;;;;;;11.23;4.70;;;;;;;;;;5042774;28;20486;-91
2022/12/06 09:22:41;;;;;;;8.88;4.07;;;;;;;;;;5029349;28;20037;-87
2022/12/06 09:25:07;;;;;;;11.43;4.77;;;;;;;;;;5046993;28;20030;-89
2022/12/06 09:27:32;;;;;;;9.87;4.13;;;;;;;;;;5048006;28;20448;-90
2022/12/06 09:29:57;;;;;;;9.20;4.43;;;;;;;;;;5027940;28;20088;-89
2022/12/06 09:32:22;;;;;;;9.23;4.50;;;;;;;;;;5030652;28;20014;-91
2022/12/06 09:34:48;;;;;;;13.87;4.33;;;;;;;;;;5032926;28;20063;-90
2022/12/06 09:37:13;;;;;;;8.73;4.00;;;;;;;;;;5051521;28;20201;-88
2022/12/06 09:39:40;;;;;;;9.97;3.73;;;;;;;;;;5031604;28;20032;-88
2022/12/06 09:42:06;;;;;;;8.87;3.83;;;;;;;;;;5028605;28;20280;-87
2022/12/06 09:44:31;;;;;;;10.33;4.50;;;;;;;;;;5047066;28;20113;-88
2022/12/06 09:46:59;;;;;;;12.77;4.70;;;;;;;;;;5029163;28;20018;-91
2022/12/06 09:49:24;;;;;;;10.53;5.43;;;;;;;;;;5029317;28;20018;-89
2022/12/06 09:51:58;;;;;;;16.23;5.20;;;;;;;;;;5043456;28;20021;-89
2022/12/06 09:54:32;;;;;;;12.47;5.13;;;;;;;;;;5031859;28;20075;-87
2022/12/06 09:57:04;;;;;;;15.20;4.67;;;;;;;;;;5039402;28;20025;-89
2022/12/06 09:59:41;;;;;;;12.88;4.85;;;;;;;;;;5032287;28;20031;-88
2022/12/06 10:02:07;;;;;;;16.60;4.90;;;;;;;;;;5031616;28;20057;-89
2022/12/06 10:04:47;;;;;;;11.67;4.93;;;;;;;;;;5030352;28;20619;-89
2022/12/06 10:07:31;;;;;;;18.80;7.23;;;;;;;;;;5034608;28;20389;-88
2022/12/06 10:10:15;;;;;;;12.93;6.50;;;;;;;;;;5030711;28;20040;-91
2022/12/06 10:12:40;;;;;;;22.37;11.73;;;;;;;;;;5026510;28;20025;-86
2022/12/06 10:15:05;;;;;;;34.67;17.57;;;;;;;;;;5032694;28;20084;-90
2022/12/06 10:17:37;;;;;;;11.90;5.00;;;;;;;;;;5029085;28;20037;-88
2022/12/06 10:20:29;;;;;;;14.10;5.93;;;;;;;;;;5031445;28;20124;-87
2022/12/06 10:23:01;;;;;;;17.40;5.60;;;;;;;;;;5047672;28;20345;-90
2022/12/06 10:25:29;;;;;;;18.57;5.97;;;;;;;;;;5047914;28;20032;-87
2022/12/06 10:28:21;;;;;;;13.57;6.80;;;;;;;;;;5041084;28;20472;-90
2022/12/06 10:30:50;;;;;;;18.53;7.60;;;;;;;;;;5022078;28;20030;-91
2022/12/06 10:33:26;;;;;;;16.30;7.67;;;;;;;;;;5032091;28;20262;-91
2022/12/06 10:35:58;;;;;;;16.30;7.40;;;;;;;;;;5031591;28;20083;-89
2022/12/06 10:38:26;;;;;;;15.40;7.03;;;;;;;;;;5040318;28;20018;-88
2022/12/06 10:40:52;;;;;;;13.90;7.10;;;;;;;;;;5022699;28;20035;-89
2022/12/06 10:43:37;;;;;;;19.90;7.10;;;;;;;;;;5039701;28;20477;-90
2022/12/06 10:49:25;;;;;;;19.43;7.63;;;;;;;;;;5024978;28;20033;-93
2022/12/06 10:51:56;;;;;;;19.27;6.27;;;;;;;;;;5041556;28;20080;-90
2022/12/06 10:54:32;;;;;;;12.27;5.77;;;;;;;;;;5039111;28;20018;-89
2022/12/06 10:57:00;;;;;;;11.57;5.60;;;;;;;;;;5022919;28;20446;-88
2022/12/06 10:59:29;;;;;;;10.57;4.77;;;;;;;;;;5042238;28;20025;-88
2022/12/06 11:01:57;;;;;;;10.20;4.90;;;;;;;;;;5047250;28;20048;-88
2022/12/06 11:04:24;;;;;;;8.73;4.20;;;;;;;;;;5024692;28;20016;-86
2022/12/06 11:07:00;;;;;;;9.17;4.53;;;;;;;;;;5039723;28;20017;-85
2022/12/06 11:09:32;;;;;;;13.90;4.50;;;;;;;;;;5033841;28;20020;-85
2022/12/06 11:11:57;;;;;;;7.18;4.18;;;;;;;;;;5027970;28;20097;-87
2022/12/06 11:14:31;;;;;;;8.77;4.20;;;;;;;;;;5029930;28;20060;-88
2022/12/06 11:17:13;;;;;;;9.57;4.00;;;;;;;;;;5030855;28;20114;-91
2022/12/06 11:19:39;;;;;;;10.40;3.78;;;;;;;;;;5038746;28;20022;-86
2022/12/06 11:22:17;;;;;;;8.85;4.03;;;;;;;;;;5042673;28;20112;-87
2022/12/06 11:24:51;;;;;;;11.45;4.07;;;;;;;;;;5029523;28;20076;-86
2022/12/06 11:27:23;;;;;;;8.23;3.72;;;;;;;;;;5031342;28;20013;-85
2022/12/06 11:29:49;;;;;;;11.25;4.43;;;;;;;;;;5025632;28;20025;-86
2022/12/06 11:32:15;;;;;;;6.82;3.20;;;;;;;;;;5029682;28;20025;-86
2022/12/06 11:34:42;;;;;;;8.27;3.70;;;;;;;;;;5025275;28;20120;-86
2022/12/06 11:37:13;;;;;;;8.02;3.08;;;;;;;;;;5024749;28;20022;-88
2022/12/06 11:39:38;;;;;;;5.68;2.90;;;;;;;;;;5045513;28;20033;-89
2022/12/06 11:42:06;;;;;;;7.25;3.33;;;;;;;;;;5027475;28;20025;-86
2022/12/06 11:44:37;;;;;;;12.10;3.35;;;;;;;;;;5036339;28;20026;-90
2022/12/06 11:47:03;;;;;;;6.97;3.03;;;;;;;;;;5041618;28;20435;-89
2022/12/06 11:49:33;;;;;;;5.78;3.30;;;;;;;;;;5032114;28;20021;-89
2022/12/06 11:52:02;;;;;;;6.18;2.65;;;;;;;;;;5038411;28;20481;-89
2022/12/06 11:54:37;;;;;;;8.73;2.75;;;;;;;;;;5027076;28;20033;-89
2022/12/06 11:57:12;;;;;;;6.43;2.80;;;;;;;;;;5030346;28;20030;-88
2022/12/06 11:59:37;;;;;;;9.57;2.63;;;;;;;;;;5024016;28;20424;-88
2022/12/06 12:02:02;;;;;;;6.07;2.70;;;;;;;;;;5038760;28;20060;-90
2022/12/06 12:04:43;;;;;;;6.53;3.08;;;;;;;;;;5045540;28;20037;-87
2022/12/06 12:07:08;;;;;;;4.93;2.63;;;;;;;;;;5030280;28;20076;-88
2022/12/06 12:09:54;;;;;;;5.97;2.50;;;;;;;;;;5033126;28;20629;-88
2022/12/06 12:12:21;;;;;;;5.70;2.70;;;;;;;;;;5024466;28;20068;-87
2022/12/06 12:14:52;;;;;;;4.13;1.98;;;;;;;;;;5030682;28;20049;-88
2022/12/06 12:17:19;;;;;;;4.22;2.53;;;;;;;;;;5035266;28;20021;-88
2022/12/06 12:19:44;;;;;;;3.70;2.13;;;;;;;;;;5029952;28;20326;-89
2022/12/06 12:22:32;;;;;;;7.07;2.60;;;;;;;;;;5027788;28;20025;-87
2022/12/06 12:25:00;;;;;;;5.80;2.05;;;;;;;;;;5034226;28;20572;-87
2022/12/06 12:27:29;;;;;;;4.43;2.00;;;;;;;;;;5027737;28;20138;-88
2022/12/06 12:30:13;;;;;;;6.85;2.17;;;;;;;;;;5039613;28;20117;-88
2022/12/06 12:32:39;;;;;;;8.02;2.60;;;;;;;;;;5044937;28;20124;-88
2022/12/06 12:35:19;;;;;;;5.82;2.45;;;;;;;;;;5033060;28;20045;-88
2022/12/06 12:37:45;;;;;;;3.85;2.33;;;;;;;;;;5041353;28;20072;-88
2022/12/06 12:40:23;;;;;;;7.57;2.30;;;;;;;;;;5030279;28;20204;-86
2022/12/06 12:42:55;;;;;;;5.35;2.10;;;;;;;;;;5029026;28;20026;-87
2022/12/06 12:45:21;;;;;;;4.13;2.20;;;;;;;;;;5019493;28;20469;-88
2022/12/06 12:47:56;;;;;;;3.85;1.70;;;;;;;;;;5033412;28;20131;-85
2022/12/06 12:50:22;;;;;;;5.00;1.92;;;;;;;;;;5028605;28;20030;-86
2022/12/06 12:52:48;;;;;;;7.32;1.88;;;;;;;;;;5043777;28;20087;-86
2022/12/06 12:55:24;;;;;;;5.72;1.60;;;;;;;;;;5022134;28;21188;-85
2022/12/06 12:57:51;;;;;;;4.47;1.80;;;;;;;;;;5028794;28;20026;-86
2022/12/06 13:00:17;;;;;;;5.22;2.03;;;;;;;;;;5039501;28;20029;-86
2022/12/06 13:02:44;;;;;;;3.58;1.60;;;;;;;;;;5030756;28;20491;-87
2022/12/06 13:05:23;;;;;;;4.32;1.60;;;;;;;;;;5048738;28;20059;-85
2022/12/06 13:07:51;;;;;;;5.50;1.30;;;;;;;;;;5028668;28;20022;-86
2022/12/06 13:10:36;;;;;;;5.53;1.63;;;;;;;;;;5047736;28;20026;-86
2022/12/06 13:13:10;;;;;;;6.38;2.28;;;;;;;;;;5029576;28;20100;-85
2022/12/06 13:15:39;;;;;;;9.25;2.83;;;;;;;;;;5033582;28;20128;-86
2022/12/06 13:18:19;;;;;;;13.90;4.00;;;;;;;;;;5032436;28;20480;-86
2022/12/06 13:20:46;;;;;;;9.15;2.97;;;;;;;;;;5027522;28;20091;-87
2022/12/06 13:23:14;;;;;;;12.38;4.03;;;;;;;;;;5030312;28;20021;-84
2022/12/06 13:25:41;;;;;;;14.90;3.65;;;;;;;;;;5031081;28;20023;-85
2022/12/06 13:28:13;;;;;;;6.70;2.00;;;;;;;;;;5044469;28;20199;-84
2022/12/06 13:30:39;;;;;;;4.80;1.42;;;;;;;;;;5031642;28;20013;-84
2022/12/06 13:33:13;;;;;;;10.30;4.43;;;;;;;;;;5030167;28;20075;-83
2022/12/06 13:35:51;;;;;;;7.68;1.60;;;;;;;;;;5028555;28;20026;-85
2022/12/06 13:38:16;;;;;;;6.80;1.20;;;;;;;;;;5034186;28;20025;-85
2022/12/06 13:40:55;;;;;;;6.85;1.98;;;;;;;;;;5039444;28;20033;-84
2022/12/06 13:43:23;;;;;;;6.35;1.20;;;;;;;;;;5036223;28;20014;-85
2022/12/06 13:45:53;;;;;;;4.53;1.30;;;;;;;;;;5018967;28;20018;-84
2022/12/06 13:48:33;;;;;;;3.92;1.60;;;;;;;;;;5047389;28;20465;-83
2022/12/06 13:51:03;;;;;;;3.67;1.48;;;;;;;;;;5041242;28;20059;-82
2022/12/06 13:53:32;;;;;;;2.55;1.25;;;;;;;;;;5045863;28;20353;-85
2022/12/06 13:56:17;;;;;;;2.55;1.20;;;;;;;;;;5032374;28;20094;-85
2022/12/06 13:58:49;;;;;;;4.65;1.52;;;;;;;;;;5019369;28;20108;-85
2022/12/06 14:01:47;;;;;;;5.00;1.40;;;;;;;;;;5027733;28;20021;-84
2022/12/06 14:04:27;;;;;;;4.00;1.33;;;;;;;;;;5043949;28;20084;-84
2022/12/06 14:06:58;;;;;;;8.68;1.70;;;;;;;;;;5029603;28;20318;-83
2022/12/06 14:09:24;;;;;;;5.00;1.70;;;;;;;;;;5029058;28;20055;-84
2022/12/06 14:11:50;;;;;;;5.38;1.58;;;;;;;;;;5024886;28;20029;-83
2022/12/06 14:14:17;;;;;;;3.55;1.77;;;;;;;;;;5030617;28;20087;-85
2022/12/06 14:16:45;;;;;;;4.00;1.30;;;;;;;;;;5028638;28;20037;-87
2022/12/06 14:19:13;;;;;;;3.63;1.73;;;;;;;;;;5035122;28;20093;-85
2022/12/06 14:21:39;;;;;;;5.30;1.50;;;;;;;;;;5025446;28;20029;-84
2022/12/06 14:24:05;;;;;;;3.22;1.50;;;;;;;;;;5029428;28;20065;-84
2022/12/06 14:26:32;;;;;;;9.20;1.58;;;;;;;;;;5041373;28;20112;-84
2022/12/06 14:28:58;;;;;;;6.65;1.75;;;;;;;;;;5023128;28;20017;-86
2022/12/06 14:31:33;;;;;;;3.72;1.42;;;;;;;;;;5053681;28;20378;-86
2022/12/06 14:33:58;;;;;;;8.45;1.38;;;;;;;;;;5026452;28;20029;-85
2022/12/06 14:36:34;;;;;;;8.90;1.80;;;;;;;;;;5033995;28;20040;-85
2022/12/06 14:39:06;;;;;;;2.35;1.30;;;;;;;;;;5023255;28;20087;-84
2022/12/06 14:44:18;;;;;;;5.28;1.33;;;;;;;;;;5026665;28;20071;-84
2022/12/06 14:46:45;;;;;;;4.00;1.65;;;;;;;;;;5035500;28;20436;-84
2022/12/06 14:52:00;;;;;;;3.83;1.42;;;;;;;;;;5029546;28;20041;-84
2022/12/06 14:54:25;;;;;;;6.80;2.33;;;;;;;;;;5039825;28;20484;-84
2022/12/06 14:56:50;;;;;;;2.92;1.40;;;;;;;;;;5040007;28;20075;-84
2022/12/06 14:59:17;;;;;;;3.03;1.50;;;;;;;;;;5030988;28;20029;-84
2022/12/06 15:01:47;;;;;;;6.43;1.73;;;;;;;;;;5046475;28;20025;-84
2022/12/06 15:04:23;;;;;;;4.50;1.50;;;;;;;;;;5036987;28;20080;-84
2022/12/06 15:06:53;;;;;;;5.10;1.65;;;;;;;;;;5026130;28;20372;-84
2022/12/06 15:09:20;;;;;;;3.97;1.45;;;;;;;;;;5047343;28;20535;-83
2022/12/06 15:14:39;;;;;;;5.10;2.08;;;;;;;;;;5031358;28;20452;-84
2022/12/06 15:17:13;;;;;;;9.13;1.80;;;;;;;;;;5044333;28;20025;-84
2022/12/06 15:19:46;;;;;;;4.45;1.67;;;;;;;;;;5031645;28;20052;-83